• Join FlightAware (Why Join?)
  • Login
  • US Flag 
10:44PM EDT


 

Airport Tracker/Info


-or-


 

Live Flight TrackerFlight Track Log ✈ SKW5500 ✈ 25-Apr-2013 ✈ KDEN - KASE

Flight Track Log - Related Links

Times and Time Zones

All times are in EDT time to prevent confusion due to time zone crossing. See the SKW5500 flight status page for this flight to view local times or setup timezone preferences in your user account.

Time Position Orientation Groundspeed Altitude Reporting Facility
EDT Latitude Longitude Course Direction KTS MPH feet Rate Location/Type
05:41PM 39.7707 -105.1491 259° West  Level FlightAware Approximate
05:42PM 39.7520 -105.2703 259° West  Level FlightAware Approximate
05:43PM 39.7376 -105.3914 255° West  Level FlightAware Approximate
05:44PM 39.7121 -105.5104 254° West  Level FlightAware Approximate
05:45PM 39.6903 -105.6291 247° West  Level FlightAware Approximate
05:46PM 39.6833 -105.7507 270° West  Level FlightAware Approximate
05:47PM 39.6667 -105.8635 270° West  Level FlightAware Approximate
05:48PM 39.6479 -105.9833 261° West  Level FlightAware Approximate
05:49PM 39.6329 -106.1051 264° West  Level FlightAware Approximate
05:50PM 39.6227 -106.2277 264° West  Level FlightAware Approximate
05:51PM 39.6063 -106.3478 247° West  Level FlightAware Approximate
05:52PM 39.5687 -106.4611 247° West  Level FlightAware Approximate
05:53PM 39.5310 -106.5741 247° West  Level FlightAware Approximate
05:54PM 39.4932 -106.6871 247° West  Level FlightAware Approximate
05:55PM 39.4556 -106.8001 247° West  Level FlightAware Approximate
05:56PM 39.4072 -106.8811 176° South  Level FlightAware Approximate
05:57PM 39.3124 -106.8732 176° South  Level FlightAware Approximate
05:58PM 39.2176 -106.8667 180° South  Level FlightAware Approximate
05:59PM 39.2167 -106.8667 180° South  Level FlightAware Approximate
06:00PM 39.2219 -106.8682 180° South  Level Estimated
06:01PM 39.2167 -106.8667 180° South  Level FlightAware Approximate
06:02PM 39.2219 -106.8682 180° South  Level Estimated
06:03PM 39.2167 -106.8667 180° South  Level FlightAware Approximate
06:04PM 39.2219 -106.8682 180° South  Level Estimated